Time;durP1;ratioP1;P1;durP2;ratioP2;P2;SDS_P1;SDS_P2;PMS_P1;PMS_P2;Temp;Humidity;BMP_temperature;BMP_pressure;BME280_temperature;BME280_humidity;BME280_pressure;Samples;Min_cycle;Max_cycle;Signal;HPM_P1;HPM_P2
2022/07/26 00:02:15;;;;;;;13.07;4.20;;;18.20;99.90;;;;;;5054468;28;20033;-49
2022/07/26 00:04:41;;;;;;;15.25;3.15;;;18.20;99.90;;;;;;5054322;28;20040;-51
2022/07/26 00:07:07;;;;;;;10.55;3.10;;;18.30;99.90;;;;;;5054366;28;20413;-48
2022/07/26 00:09:32;;;;;;;12.65;2.60;;;18.20;99.90;;;;;;5054719;28;20056;-49
2022/07/26 00:11:58;;;;;;;11.52;2.92;;;18.30;99.90;;;;;;5070232;28;20041;-49
2022/07/26 00:14:24;;;;;;;13.27;3.22;;;18.20;99.90;;;;;;5067657;28;20049;-48
2022/07/26 00:16:50;;;;;;;13.38;3.42;;;18.20;99.90;;;;;;5068194;28;20037;-49
2022/07/26 00:19:15;;;;;;;11.85;3.53;;;18.10;99.90;;;;;;5067000;28;20040;-49
2022/07/26 00:21:41;;;;;;;11.23;3.03;;;18.20;99.90;;;;;;5041682;28;20052;-51
2022/07/26 00:24:07;;;;;;;12.77;4.10;;;18.10;99.90;;;;;;5034612;28;20075;-58
2022/07/26 00:26:33;;;;;;;11.70;3.10;;;18.10;99.90;;;;;;5034396;28;20052;-58
2022/07/26 00:29:02;;;;;;;9.15;3.22;;;18.00;99.90;;;;;;5033060;28;20072;-58
2022/07/26 00:31:27;;;;;;;11.38;3.10;;;18.10;99.90;;;;;;5034288;28;20042;-59
2022/07/26 00:33:53;;;;;;;8.50;2.90;;;18.10;99.90;;;;;;5034068;28;20060;-58
2022/07/26 00:36:19;;;;;;;11.02;2.60;;;18.10;99.90;;;;;;5033943;28;20055;-58
2022/07/26 00:38:44;;;;;;;7.88;2.70;;;18.10;99.90;;;;;;5049096;28;20099;-60
2022/07/26 00:41:10;;;;;;;8.80;2.55;;;18.20;99.90;;;;;;5033988;28;20037;-61
2022/07/26 00:43:36;;;;;;;7.25;2.78;;;18.10;99.90;;;;;;5032552;28;20069;-60
2022/07/26 00:46:02;;;;;;;7.45;3.08;;;18.20;99.90;;;;;;5033752;28;20132;-61
2022/07/26 00:48:28;;;;;;;7.45;2.60;;;18.10;99.90;;;;;;5033757;28;20038;-61
2022/07/26 00:50:53;;;;;;;7.97;2.95;;;18.10;99.90;;;;;;5033938;28;20040;-60
2022/07/26 00:53:21;;;;;;;7.20;3.22;;;18.00;99.90;;;;;;5033967;28;20041;-60
2022/07/26 00:55:48;;;;;;;8.65;2.80;;;18.10;99.90;;;;;;5033630;28;20132;-60
2022/07/26 00:58:14;;;;;;;9.15;2.50;;;18.00;99.90;;;;;;5032425;28;20038;-60
2022/07/26 01:00:40;;;;;;;8.73;2.50;;;18.00;99.90;;;;;;5033424;28;20124;-61
2022/07/26 01:03:06;;;;;;;7.13;3.03;;;18.10;99.90;;;;;;5033444;28;20120;-61
2022/07/26 01:05:32;;;;;;;7.43;2.70;;;18.00;99.90;;;;;;5033581;28;20041;-60
2022/07/26 01:07:58;;;;;;;8.23;2.78;;;18.00;99.90;;;;;;5033541;28;20091;-61
2022/07/26 01:10:24;;;;;;;9.93;2.95;;;17.90;99.90;;;;;;5033351;28;20034;-60
2022/07/26 01:12:50;;;;;;;10.15;3.20;;;18.00;99.90;;;;;;5032464;28;20401;-60
2022/07/26 01:15:16;;;;;;;8.02;2.75;;;17.90;99.90;;;;;;5033231;28;20049;-59
2022/07/26 01:17:43;;;;;;;6.72;3.10;;;18.00;99.90;;;;;;5033479;28;20045;-60
2022/07/26 01:20:11;;;;;;;9.45;3.10;;;17.90;99.90;;;;;;5039564;28;20072;-61
2022/07/26 01:22:37;;;;;;;9.63;3.30;;;17.90;99.90;;;;;;5053198;28;20068;-61
2022/07/26 01:25:04;;;;;;;6.80;3.05;;;17.80;99.90;;;;;;5053100;28;20048;-60
2022/07/26 01:27:30;;;;;;;7.43;3.20;;;17.90;99.90;;;;;;5052897;28;20037;-60
2022/07/26 01:29:55;;;;;;;9.63;3.83;;;17.80;99.90;;;;;;5052892;28;20044;-61
2022/07/26 01:32:21;;;;;;;7.50;3.20;;;17.80;99.90;;;;;;5052888;28;20064;-61
2022/07/26 01:34:47;;;;;;;7.45;3.28;;;17.80;99.90;;;;;;5052927;28;20463;-61
2022/07/26 01:37:12;;;;;;;8.88;3.30;;;17.80;99.90;;;;;;5052781;28;20044;-61
2022/07/26 01:39:38;;;;;;;8.70;3.10;;;17.80;99.90;;;;;;5051831;28;20501;-60
2022/07/26 01:42:04;;;;;;;7.97;2.90;;;17.70;99.90;;;;;;5052758;28;20037;-61
2022/07/26 01:44:30;;;;;;;9.88;3.33;;;17.70;99.90;;;;;;5052650;28;20061;-61
2022/07/26 01:46:55;;;;;;;6.45;3.00;;;17.70;99.90;;;;;;5052463;28;20033;-61
2022/07/26 01:49:21;;;;;;;9.27;3.08;;;17.80;99.90;;;;;;5052794;28;20064;-61
2022/07/26 01:51:47;;;;;;;10.43;3.67;;;17.70;99.90;;;;;;5052662;28;20043;-61
2022/07/26 01:54:12;;;;;;;7.78;3.25;;;17.70;99.90;;;;;;5052457;28;20497;-60
2022/07/26 01:56:38;;;;;;;8.98;3.20;;;17.60;99.90;;;;;;5051107;28;20541;-60
2022/07/26 01:59:04;;;;;;;8.60;3.35;;;17.60;99.90;;;;;;5052433;28;20037;-60
2022/07/26 02:01:30;;;;;;;10.20;3.20;;;17.60;99.90;;;;;;5052275;28;20371;-61
2022/07/26 02:03:55;;;;;;;9.85;3.42;;;17.50;99.90;;;;;;5052516;28;20051;-61
2022/07/26 02:06:21;;;;;;;8.48;2.60;;;17.60;99.90;;;;;;5052224;28;20128;-61
2022/07/26 02:08:47;;;;;;;10.13;3.08;;;17.60;99.90;;;;;;5052442;28;20044;-61
2022/07/26 02:11:13;;;;;;;9.18;3.40;;;17.60;99.90;;;;;;5052355;28;20094;-60
2022/07/26 02:13:40;;;;;;;13.10;4.22;;;17.50;99.90;;;;;;5052167;28;20114;-60
2022/07/26 02:16:08;;;;;;;10.13;3.65;;;17.30;99.90;;;;;;5052040;28;20490;-61
2022/07/26 02:18:36;;;;;;;9.13;2.20;;;17.20;99.90;;;;;;5052343;28;20113;-61
2022/07/26 02:21:03;;;;;;;9.02;2.25;;;17.00;99.90;;;;;;5038605;28;20033;-61
2022/07/26 02:23:29;;;;;;;7.57;2.25;;;16.80;99.90;;;;;;5032152;28;20508;-60
2022/07/26 02:25:55;;;;;;;7.28;2.40;;;16.80;99.90;;;;;;5032216;28;20125;-60
2022/07/26 02:28:21;;;;;;;12.10;3.20;;;16.70;99.90;;;;;;5030858;28;20175;-61
2022/07/26 02:30:48;;;;;;;7.82;3.00;;;16.70;99.90;;;;;;5032363;28;20467;-61
2022/07/26 02:33:14;;;;;;;8.95;2.50;;;16.60;99.90;;;;;;5047195;28;20096;-61
2022/07/26 02:35:40;;;;;;;8.43;2.67;;;16.60;99.90;;;;;;5032125;28;20046;-61
2022/07/26 02:38:09;;;;;;;11.93;2.90;;;16.40;99.90;;;;;;5032189;28;20040;-61
2022/07/26 02:40:36;;;;;;;7.22;2.50;;;16.50;99.90;;;;;;5047670;28;20045;-61
2022/07/26 02:43:02;;;;;;;9.88;2.88;;;16.50;99.90;;;;;;5032052;28;20061;-60
2022/07/26 02:45:28;;;;;;;9.65;2.50;;;16.40;99.90;;;;;;5032258;28;20061;-60
2022/07/26 02:47:54;;;;;;;10.40;3.30;;;16.50;99.90;;;;;;5032142;28;20474;-61
2022/07/26 02:50:25;;;;;;;12.27;2.75;;;16.60;99.90;;;;;;5032163;28;20424;-60
2022/07/26 02:52:52;;;;;;;15.30;3.33;;;16.50;99.90;;;;;;5031990;28;20045;-61
2022/07/26 02:55:23;;;;;;;8.63;2.55;;;16.60;99.90;;;;;;5031936;28;20053;-61
2022/07/26 02:57:50;;;;;;;10.45;2.78;;;16.70;99.90;;;;;;5031964;28;20045;-61
2022/07/26 03:00:18;;;;;;;9.65;2.15;;;16.70;99.90;;;;;;5032102;28;20504;-60
2022/07/26 03:02:44;;;;;;;9.63;2.13;;;16.70;99.90;;;;;;5031819;28;20052;-61
2022/07/26 03:05:10;;;;;;;7.82;2.10;;;16.80;99.90;;;;;;5031941;28;20037;-61
2022/07/26 03:07:36;;;;;;;7.47;1.80;;;16.70;99.90;;;;;;5031839;28;20103;-61
2022/07/26 03:10:02;;;;;;;11.35;2.33;;;16.70;99.90;;;;;;5031745;28;20037;-61
2022/07/26 03:12:29;;;;;;;8.68;1.80;;;16.80;99.90;;;;;;5031710;28;20049;-61
2022/07/26 03:14:54;;;;;;;9.95;2.15;;;16.70;99.90;;;;;;5031706;28;20072;-59
2022/07/26 03:17:20;;;;;;;11.38;1.60;;;16.70;99.90;;;;;;5031797;28;20034;-61
2022/07/26 03:19:46;;;;;;;8.65;2.00;;;16.60;99.90;;;;;;5034837;28;20048;-60
2022/07/26 03:22:11;;;;;;;9.20;1.55;;;16.60;99.90;;;;;;5067210;28;20080;-60
2022/07/26 03:24:37;;;;;;;8.98;1.90;;;16.50;99.90;;;;;;5051729;28;20083;-60
2022/07/26 03:27:03;;;;;;;8.88;1.35;;;16.50;99.90;;;;;;5051758;28;20072;-60
2022/07/26 03:29:28;;;;;;;10.85;1.73;;;16.60;99.90;;;;;;5051678;28;20048;-60
2022/07/26 03:31:54;;;;;;;7.63;1.50;;;16.50;99.90;;;;;;5051423;28;20045;-60
2022/07/26 03:34:20;;;;;;;10.13;1.38;;;16.60;99.90;;;;;;5051640;28;20087;-60
2022/07/26 03:36:46;;;;;;;6.22;1.30;;;16.60;99.90;;;;;;5055279;28;20119;-61
2022/07/26 03:39:11;;;;;;;7.60;1.30;;;16.50;99.90;;;;;;5054877;28;20037;-60
2022/07/26 03:41:37;;;;;;;4.75;1.20;;;16.60;99.90;;;;;;5055224;28;20033;-61
2022/07/26 03:44:03;;;;;;;6.07;1.02;;;16.60;99.90;;;;;;5055070;28;20481;-60
2022/07/26 03:46:29;;;;;;;8.98;1.30;;;16.70;99.90;;;;;;5055109;28;20036;-60
2022/07/26 03:48:55;;;;;;;9.52;1.30;;;16.60;99.90;;;;;;5054970;28;20493;-61
2022/07/26 03:51:20;;;;;;;10.52;1.00;;;16.60;99.90;;;;;;5054841;28;20040;-60
2022/07/26 03:53:46;;;;;;;7.53;1.85;;;16.60;99.90;;;;;;5054744;28;20055;-61
2022/07/26 03:56:27;;;;;;;9.05;1.15;;;16.50;99.90;;;;;;5054880;28;20041;-60
2022/07/26 03:58:53;;;;;;;6.25;1.35;;;16.50;99.90;;;;;;5054687;28;20029;-60
2022/07/26 04:01:19;;;;;;;7.45;1.27;;;16.60;99.90;;;;;;5054555;28;20034;-60
2022/07/26 04:03:45;;;;;;;8.90;1.50;;;16.60;99.90;;;;;;5054548;28;20044;-60
2022/07/26 04:06:10;;;;;;;6.45;1.10;;;16.60;99.90;;;;;;5054579;28;20102;-61
2022/07/26 04:08:36;;;;;;;8.82;1.23;;;16.50;99.90;;;;;;5054390;28;20048;-60
2022/07/26 04:11:01;;;;;;;7.57;2.08;;;16.50;99.90;;;;;;5069821;28;20077;-61
2022/07/26 04:13:27;;;;;;;5.80;1.23;;;16.50;99.90;;;;;;5054511;28;20069;-60
2022/07/26 04:15:53;;;;;;;5.95;1.45;;;16.50;99.90;;;;;;5054134;28;20040;-60
2022/07/26 04:18:19;;;;;;;6.60;1.23;;;16.50;99.90;;;;;;5054357;28;20045;-60
2022/07/26 04:20:44;;;;;;;6.70;1.20;;;16.40;99.90;;;;;;5042914;28;20037;-62
2022/07/26 04:23:10;;;;;;;4.35;1.00;;;16.50;99.90;;;;;;5034312;28;20572;-60
2022/07/26 04:25:36;;;;;;;7.20;1.20;;;16.40;99.90;;;;;;5034115;28;20041;-61
2022/07/26 04:28:02;;;;;;;10.68;1.38;;;16.40;99.90;;;;;;5034464;28;20042;-61
2022/07/26 04:30:28;;;;;;;10.50;1.85;;;16.40;99.90;;;;;;5034135;28;20076;-61
2022/07/26 04:32:54;;;;;;;6.85;1.48;;;16.50;99.90;;;;;;5034051;28;20086;-61
2022/07/26 04:35:35;;;;;;;5.95;1.90;;;16.40;99.90;;;;;;5021852;28;20076;-60
2022/07/26 04:38:02;;;;;;;6.70;1.40;;;16.50;99.90;;;;;;5034012;28;20052;-61
2022/07/26 04:40:32;;;;;;;9.85;1.45;;;16.40;99.90;;;;;;5034027;28;20083;-61
2022/07/26 04:43:00;;;;;;;7.85;1.33;;;16.40;99.90;;;;;;5034089;28;20045;-61
2022/07/26 04:45:26;;;;;;;7.22;1.77;;;16.40;99.90;;;;;;5033928;28;20044;-60
2022/07/26 04:47:52;;;;;;;7.35;1.38;;;16.40;99.90;;;;;;5033931;28;20053;-61
2022/07/26 04:50:18;;;;;;;5.45;1.58;;;16.40;99.90;;;;;;5033697;28;20131;-60
2022/07/26 04:52:44;;;;;;;8.48;1.10;;;16.50;99.90;;;;;;5033733;28;20037;-61
2022/07/26 04:55:10;;;;;;;8.98;1.48;;;16.60;99.90;;;;;;5048964;28;20091;-60
2022/07/26 04:57:36;;;;;;;6.70;0.98;;;16.60;99.90;;;;;;5032345;28;20042;-60
2022/07/26 05:00:05;;;;;;;4.57;0.80;;;16.60;99.90;;;;;;5033585;28;21000;-61
2022/07/26 05:02:31;;;;;;;4.53;0.88;;;16.50;99.90;;;;;;5033567;28;20038;-60
2022/07/26 05:04:56;;;;;;;10.60;1.50;;;16.50;99.90;;;;;;5033632;28;20048;-61
2022/07/26 05:07:22;;;;;;;5.78;1.10;;;16.20;99.90;;;;;;5033376;28;20375;-60
2022/07/26 05:09:48;;;;;;;4.78;1.20;;;16.10;99.90;;;;;;5033474;28;20045;-60
2022/07/26 05:12:13;;;;;;;5.03;0.82;;;16.10;99.90;;;;;;5033444;28;20375;-60
2022/07/26 05:14:39;;;;;;;6.65;1.27;;;16.00;99.90;;;;;;5031952;28;20072;-60
2022/07/26 05:17:05;;;;;;;7.40;1.58;;;16.00;99.90;;;;;;5033365;28;20465;-60
2022/07/26 05:19:31;;;;;;;6.50;0.90;;;16.00;99.90;;;;;;5034381;28;20041;-60
2022/07/26 05:21:56;;;;;;;4.40;0.90;;;16.00;99.90;;;;;;5053225;28;20048;-60
2022/07/26 05:24:22;;;;;;;5.47;1.45;;;16.00;99.90;;;;;;5053021;28;20166;-59
2022/07/26 05:26:48;;;;;;;8.00;1.10;;;16.00;99.90;;;;;;5068535;28;20047;-60
2022/07/26 05:29:13;;;;;;;4.32;0.90;;;16.00;99.90;;;;;;5052975;28;20076;-60
2022/07/26 05:31:39;;;;;;;4.30;1.40;;;16.00;99.90;;;;;;5052797;28;20401;-60
2022/07/26 05:34:05;;;;;;;9.40;1.40;;;16.10;99.90;;;;;;5052822;28;20049;-61
2022/07/26 05:36:30;;;;;;;8.02;1.10;;;16.10;99.90;;;;;;5052877;28;20043;-60
2022/07/26 05:38:56;;;;;;;5.72;1.00;;;16.10;99.90;;;;;;5052910;28;20128;-61
2022/07/26 05:41:22;;;;;;;8.07;1.20;;;16.10;99.90;;;;;;5052737;28;20489;-60
2022/07/26 05:43:47;;;;;;;7.40;1.10;;;16.20;99.90;;;;;;5052718;28;20093;-60
2022/07/26 05:46:14;;;;;;;5.18;1.40;;;16.20;99.90;;;;;;5052620;28;20037;-60
2022/07/26 05:48:41;;;;;;;6.72;1.15;;;16.10;99.90;;;;;;5052912;28;20045;-61
2022/07/26 05:51:08;;;;;;;5.68;0.90;;;16.10;99.90;;;;;;5052702;28;20049;-60
2022/07/26 05:53:34;;;;;;;6.07;1.00;;;16.30;99.90;;;;;;5052634;28;20052;-61
2022/07/26 05:56:00;;;;;;;7.88;1.30;;;16.30;99.90;;;;;;5052348;28;20041;-61
2022/07/26 05:58:26;;;;;;;6.68;1.05;;;16.40;99.90;;;;;;5052043;28;20040;-60
2022/07/26 06:00:51;;;;;;;7.63;0.90;;;16.50;99.90;;;;;;5052405;28;20032;-61
2022/07/26 06:03:23;;;;;;;4.80;1.20;;;16.50;99.90;;;;;;5052521;28;20033;-60
2022/07/26 06:05:50;;;;;;;7.88;1.13;;;16.50;99.90;;;;;;5052345;28;20044;-61
2022/07/26 06:08:17;;;;;;;8.20;1.00;;;16.60;99.90;;;;;;5052308;28;20044;-61
2022/07/26 06:10:43;;;;;;;6.32;1.33;;;16.60;99.90;;;;;;5052360;28;20553;-60
2022/07/26 06:13:08;;;;;;;7.50;1.00;;;16.70;99.90;;;;;;5052250;28;20140;-60
2022/07/26 06:15:34;;;;;;;8.88;1.10;;;16.60;99.90;;;;;;5051922;28;20040;-60
2022/07/26 06:18:00;;;;;;;9.05;1.13;;;16.50;99.90;;;;;;5052415;28;20125;-61
2022/07/26 06:20:25;;;;;;;9.65;1.38;;;16.50;99.90;;;;;;5043616;28;20037;-60
2022/07/26 06:22:51;;;;;;;7.60;1.30;;;16.50;99.90;;;;;;5032491;28;20037;-61
2022/07/26 06:25:17;;;;;;;8.02;1.10;;;16.50;99.90;;;;;;5047470;28;20095;-61
2022/07/26 06:27:43;;;;;;;7.00;1.20;;;16.60;99.90;;;;;;5032160;28;20072;-61
2022/07/26 06:30:09;;;;;;;7.10;1.38;;;16.50;99.90;;;;;;5032125;28;20034;-61
2022/07/26 06:32:35;;;;;;;7.18;1.10;;;16.60;99.90;;;;;;5031963;28;20548;-61
2022/07/26 06:35:00;;;;;;;3.78;0.73;;;16.70;99.90;;;;;;5032262;28;20133;-61
2022/07/26 06:37:26;;;;;;;10.05;1.63;;;16.70;99.90;;;;;;5032172;28;20041;-61
2022/07/26 06:39:52;;;;;;;9.52;2.13;;;16.70;99.90;;;;;;5032039;28;20400;-60
2022/07/26 06:42:17;;;;;;;6.82;1.20;;;16.70;99.90;;;;;;5032011;28;20096;-60
2022/07/26 06:44:43;;;;;;;7.78;1.05;;;16.80;99.90;;;;;;5031869;28;20060;-61
2022/07/26 06:47:09;;;;;;;4.80;0.95;;;16.80;99.90;;;;;;5032163;28;20099;-61
2022/07/26 06:49:34;;;;;;;9.65;1.00;;;16.70;99.90;;;;;;5032140;28;20033;-61
2022/07/26 06:52:00;;;;;;;7.68;1.10;;;16.70;99.90;;;;;;5032078;28;20120;-61
2022/07/26 06:54:26;;;;;;;8.02;1.17;;;16.70;99.90;;;;;;5032081;28;20564;-61
2022/07/26 06:56:51;;;;;;;6.75;0.93;;;16.80;99.90;;;;;;5031660;28;20421;-61
2022/07/26 06:59:17;;;;;;;3.67;1.05;;;16.70;99.90;;;;;;5031792;28;20049;-61
2022/07/26 07:01:42;;;;;;;9.32;1.58;;;16.80;99.90;;;;;;5047355;28;20041;-60
2022/07/26 07:04:08;;;;;;;7.70;1.00;;;16.60;99.90;;;;;;5031993;28;20040;-60
2022/07/26 07:06:34;;;;;;;8.43;1.02;;;16.50;99.90;;;;;;5031936;28;20034;-60
2022/07/26 07:08:59;;;;;;;4.20;0.82;;;16.60;99.90;;;;;;5031862;28;20103;-60
2022/07/26 07:11:25;;;;;;;7.93;1.75;;;16.70;99.90;;;;;;5035248;28;20037;-60
2022/07/26 07:13:51;;;;;;;8.20;1.10;;;16.90;99.90;;;;;;5035582;28;20042;-61
2022/07/26 07:16:16;;;;;;;7.32;1.17;;;17.10;99.90;;;;;;5035543;28;20127;-61
2022/07/26 07:18:42;;;;;;;7.30;1.27;;;17.30;99.90;;;;;;5035745;28;20049;-61
2022/07/26 07:21:07;;;;;;;8.73;1.30;;;17.50;99.90;;;;;;5048610;28;20055;-61
2022/07/26 07:23:33;;;;;;;7.72;1.20;;;17.50;99.90;;;;;;5055394;28;20051;-61
2022/07/26 07:25:59;;;;;;;4.78;0.98;;;17.50;99.90;;;;;;5070713;28;20124;-60
2022/07/26 07:28:25;;;;;;;7.05;2.03;;;17.60;99.90;;;;;;5055101;28;20048;-61
2022/07/26 07:30:51;;;;;;;8.13;1.83;;;17.40;99.90;;;;;;5055426;28;20047;-61
2022/07/26 07:33:17;;;;;;;8.93;1.35;;;17.30;99.90;;;;;;5055083;28;20413;-61
2022/07/26 07:35:43;;;;;;;8.25;1.60;;;17.10;99.90;;;;;;5055055;28;20060;-61
2022/07/26 07:38:08;;;;;;;8.25;1.45;;;17.10;99.90;;;;;;5054999;28;20041;-61
2022/07/26 07:40:34;;;;;;;7.65;1.20;;;17.10;99.90;;;;;;5055076;28;20513;-60
2022/07/26 07:43:00;;;;;;;9.57;1.63;;;17.00;99.90;;;;;;5054851;28;20493;-61
2022/07/26 07:45:26;;;;;;;6.57;1.38;;;17.10;99.90;;;;;;5055212;28;20068;-61
2022/07/26 07:47:52;;;;;;;8.90;1.55;;;17.00;99.90;;;;;;5055055;28;20566;-61
2022/07/26 07:50:18;;;;;;;6.43;1.30;;;17.00;99.90;;;;;;5054824;28;20386;-61
2022/07/26 07:52:43;;;;;;;6.38;1.13;;;17.00;99.90;;;;;;5054832;28;20083;-61
2022/07/26 07:55:09;;;;;;;6.95;1.10;;;17.00;99.90;;;;;;5054573;28;20168;-61
2022/07/26 07:57:35;;;;;;;6.03;1.40;;;17.10;99.90;;;;;;5054598;28;20435;-60
2022/07/26 08:00:03;;;;;;;8.27;1.30;;;17.30;99.90;;;;;;5054837;28;20052;-62
2022/07/26 08:02:29;;;;;;;9.07;1.45;;;17.60;99.90;;;;;;5054759;28;20052;-61
2022/07/26 08:04:54;;;;;;;8.50;1.60;;;17.70;99.90;;;;;;5054551;28;20049;-61
2022/07/26 08:07:20;;;;;;;6.57;1.10;;;17.90;99.90;;;;;;5054554;28;20094;-61
2022/07/26 08:09:46;;;;;;;12.02;1.50;;;18.00;99.90;;;;;;5054496;28;20052;-60
2022/07/26 08:12:11;;;;;;;6.05;1.35;;;18.00;99.90;;;;;;5052975;28;20045;-60
2022/07/26 08:14:37;;;;;;;11.45;2.10;;;18.00;99.90;;;;;;5054452;28;20102;-60
2022/07/26 08:17:03;;;;;;;7.38;1.33;;;17.70;99.90;;;;;;5054471;28;20045;-61
2022/07/26 08:19:28;;;;;;;9.75;1.70;;;17.80;99.90;;;;;;5053531;28;20120;-61
2022/07/26 08:21:54;;;;;;;8.43;1.70;;;17.70;99.90;;;;;;5034041;28;20145;-62
2022/07/26 08:24:19;;;;;;;6.28;1.50;;;17.90;99.90;;;;;;5034185;28;20745;-61
2022/07/26 08:26:45;;;;;;;9.80;1.83;;;17.80;99.90;;;;;;5034261;28;20072;-61
2022/07/26 08:29:11;;;;;;;10.60;2.05;;;17.70;99.90;;;;;;5034323;28;20120;-60
2022/07/26 08:31:37;;;;;;;9.85;1.70;;;17.70;99.90;;;;;;5034303;28;20128;-60
2022/07/26 08:34:02;;;;;;;8.98;1.40;;;17.70;99.90;;;;;;5033894;28;20049;-61
2022/07/26 08:36:28;;;;;;;8.02;1.45;;;17.90;99.90;;;;;;5034132;28;20164;-61
2022/07/26 08:38:54;;;;;;;10.05;1.92;;;17.90;99.90;;;;;;5049391;28;20056;-60
2022/07/26 08:41:20;;;;;;;7.82;1.85;;;18.00;99.90;;;;;;5033818;28;20390;-61
2022/07/26 08:43:46;;;;;;;10.75;2.00;;;18.00;99.90;;;;;;5034049;28;20068;-61
2022/07/26 08:46:12;;;;;;;7.25;1.42;;;17.80;99.90;;;;;;5033973;28;20037;-60
2022/07/26 08:48:38;;;;;;;12.13;2.25;;;17.70;99.90;;;;;;5033824;28;20371;-61
2022/07/26 08:51:08;;;;;;;12.07;1.90;;;17.70;99.90;;;;;;5033790;28;20038;-61
2022/07/26 08:53:36;;;;;;;9.45;1.77;;;17.70;99.90;;;;;;5032525;28;20045;-61
2022/07/26 08:56:03;;;;;;;10.35;2.60;;;17.60;99.90;;;;;;5033602;28;20449;-61
2022/07/26 08:58:35;;;;;;;13.32;3.08;;;17.70;99.90;;;;;;5033671;28;20041;-61
2022/07/26 09:01:08;;;;;;;12.77;2.25;;;17.70;99.90;;;;;;5033617;28;20596;-61
2022/07/26 09:03:36;;;;;;;15.88;3.15;;;17.70;99.90;;;;;;5033589;28;20402;-61
2022/07/26 09:06:16;;;;;;;13.20;2.60;;;17.70;99.90;;;;;;5033534;28;20049;-61
2022/07/26 09:08:43;;;;;;;17.02;2.88;;;17.70;99.90;;;;;;5033713;28;20187;-61
2022/07/26 09:11:30;;;;;;;10.25;2.20;;;17.70;99.90;;;;;;5033570;28;20060;-61
2022/07/26 09:14:00;;;;;;;17.23;3.53;;;17.50;99.90;;;;;;5033360;28;20057;-61
2022/07/26 09:16:27;;;;;;;12.48;2.75;;;17.70;99.90;;;;;;5033259;28;20041;-61
2022/07/26 09:18:53;;;;;;;11.93;2.13;;;18.00;99.90;;;;;;5031954;28;20054;-61
2022/07/26 09:21:35;;;;;;;15.98;2.97;;;18.10;99.90;;;;;;5049502;28;20123;-61
2022/07/26 09:24:01;;;;;;;14.82;2.85;;;17.80;99.90;;;;;;5053153;28;20037;-61
2022/07/26 09:26:27;;;;;;;11.18;2.40;;;17.70;99.90;;;;;;5053033;28;20051;-60
2022/07/26 09:29:11;;;;;;;8.90;1.90;;;17.60;99.90;;;;;;5052959;28;20056;-61
2022/07/26 09:31:37;;;;;;;13.07;2.83;;;17.70;99.90;;;;;;5051830;28;20040;-61
2022/07/26 09:34:04;;;;;;;13.43;2.30;;;17.70;99.90;;;;;;5052176;28;20053;-62
2022/07/26 09:36:30;;;;;;;14.00;2.70;;;17.80;99.90;;;;;;5052804;28;20049;-60
2022/07/26 09:39:00;;;;;;;9.93;1.90;;;17.80;99.90;;;;;;5052806;28;20094;-60
2022/07/26 09:41:32;;;;;;;12.38;1.63;;;17.70;99.90;;;;;;5052815;28;20032;-62
2022/07/26 09:44:04;;;;;;;10.30;2.17;;;17.90;99.90;;;;;;5052738;28;20067;-60
2022/07/26 09:46:31;;;;;;;11.77;2.00;;;17.90;99.90;;;;;;5052897;28;20068;-61
2022/07/26 09:49:14;;;;;;;10.55;1.60;;;17.70;99.90;;;;;;5052795;28;20048;-61
2022/07/26 09:51:42;;;;;;;9.82;1.70;;;17.70;99.90;;;;;;5052681;28;20091;-60
2022/07/26 09:54:09;;;;;;;10.43;1.90;;;17.60;99.90;;;;;;5052320;28;20072;-60
2022/07/26 09:56:46;;;;;;;13.40;2.75;;;17.60;99.90;;;;;;5052502;28;20029;-60
2022/07/26 09:59:14;;;;;;;8.77;2.15;;;17.90;99.90;;;;;;5052385;28;20036;-61
2022/07/26 10:01:40;;;;;;;7.85;1.92;;;17.90;99.90;;;;;;5052495;28;20075;-61
2022/07/26 10:04:06;;;;;;;12.10;2.42;;;17.70;99.90;;;;;;5052449;28;20072;-61
2022/07/26 10:06:32;;;;;;;10.07;1.52;;;17.70;99.90;;;;;;5052350;28;20079;-61
2022/07/26 10:08:59;;;;;;;10.93;3.17;;;17.70;99.90;;;;;;5052256;28;20452;-61
2022/07/26 10:11:29;;;;;;;12.05;2.05;;;17.80;99.90;;;;;;5052606;28;20112;-60
2022/07/26 10:13:56;;;;;;;8.45;1.40;;;17.80;99.90;;;;;;5052346;28;20124;-61
2022/07/26 10:16:31;;;;;;;10.23;1.58;;;17.80;99.90;;;;;;5052087;28;20052;-61
2022/07/26 10:18:58;;;;;;;11.13;1.67;;;18.00;99.90;;;;;;5050927;28;20037;-62
2022/07/26 10:21:30;;;;;;;8.32;1.40;;;17.70;99.90;;;;;;5035350;28;20037;-60
2022/07/26 10:24:01;;;;;;;9.50;1.95;;;18.10;99.90;;;;;;5032536;28;20037;-61
2022/07/26 10:26:32;;;;;;;8.85;1.50;;;18.20;99.90;;;;;;5032156;28;20486;-61
2022/07/26 10:29:16;;;;;;;6.32;1.20;;;18.50;99.90;;;;;;5032167;28;20100;-62
2022/07/26 10:32:09;;;;;;;7.90;1.88;;;18.70;99.90;;;;;;5032135;28;20494;-62
2022/07/26 10:34:38;;;;;;;8.82;1.50;;;18.40;99.90;;;;;;5030606;28;20085;-62
2022/07/26 10:37:09;;;;;;;5.88;1.08;;;18.40;99.90;;;;;;5032253;28;20125;-61
2022/07/26 10:39:36;;;;;;;5.83;1.30;;;18.60;99.90;;;;;;5032117;28;20041;-62
2022/07/26 10:42:11;;;;;;;6.82;1.40;;;18.60;99.90;;;;;;5032242;28;20327;-62
2022/07/26 10:44:43;;;;;;;9.00;1.50;;;19.00;99.90;;;;;;5033388;28;20041;-62
2022/07/26 10:47:14;;;;;;;8.48;1.90;;;18.90;99.90;;;;;;5036332;28;20045;-62
2022/07/26 10:49:56;;;;;;;6.53;1.50;;;19.20;99.90;;;;;;5036141;28;20056;-62
2022/07/26 10:52:26;;;;;;;6.82;1.33;;;19.30;99.90;;;;;;5035895;28;20038;-62
2022/07/26 10:55:03;;;;;;;10.48;1.83;;;19.30;99.90;;;;;;5035951;28;20067;-62
2022/07/26 10:57:37;;;;;;;6.53;1.83;;;18.90;99.90;;;;;;5035898;28;20052;-61
2022/07/26 11:00:08;;;;;;;6.18;1.00;;;19.30;99.90;;;;;;5035923;28;20095;-61
2022/07/26 11:02:34;;;;;;;8.60;1.45;;;19.30;99.90;;;;;;5035977;28;20042;-61
2022/07/26 11:05:01;;;;;;;9.10;1.10;;;19.40;99.90;;;;;;5035648;28;20056;-62
2022/07/26 11:07:28;;;;;;;6.00;1.17;;;19.10;99.90;;;;;;5035996;28;20504;-61
2022/07/26 11:09:55;;;;;;;6.50;1.77;;;19.20;99.90;;;;;;5035658;28;20537;-62
2022/07/26 11:12:22;;;;;;;8.40;1.27;;;19.30;99.90;;;;;;5035655;28;20485;-61
2022/07/26 11:14:47;;;;;;;6.05;1.10;;;19.10;99.90;;;;;;5035575;28;20076;-62
2022/07/26 11:17:27;;;;;;;7.38;2.00;;;19.20;99.90;;;;;;5035625;28;20088;-61
2022/07/26 11:19:53;;;;;;;6.43;1.20;;;19.20;99.90;;;;;;5039892;28;20115;-62
2022/07/26 11:22:20;;;;;;;5.53;1.27;;;19.20;99.90;;;;;;5071078;28;20036;-62
2022/07/26 11:24:46;;;;;;;7.43;1.30;;;18.90;99.90;;;;;;5055324;28;20037;-61
2022/07/26 11:27:12;;;;;;;6.82;1.20;;;19.00;99.90;;;;;;5055392;28;20094;-62
2022/07/26 11:29:38;;;;;;;7.85;1.30;;;18.90;99.90;;;;;;5055368;28;20406;-61
2022/07/26 11:32:06;;;;;;;9.65;1.70;;;18.70;99.90;;;;;;5055169;28;20516;-61
2022/07/26 11:34:33;;;;;;;9.60;1.23;;;19.00;99.90;;;;;;5055067;28;20052;-61
2022/07/26 11:37:02;;;;;;;7.85;1.10;;;18.90;99.90;;;;;;5055137;28;20056;-62
2022/07/26 11:39:30;;;;;;;7.65;1.95;;;19.00;99.90;;;;;;5054504;28;20040;-62
2022/07/26 11:41:58;;;;;;;5.88;1.13;;;18.60;99.90;;;;;;5054698;28;20045;-62
2022/07/26 11:44:24;;;;;;;6.55;1.52;;;18.90;99.90;;;;;;5054718;28;20053;-62
2022/07/26 11:46:51;;;;;;;7.38;1.38;;;18.60;99.90;;;;;;5054693;28;20049;-62
2022/07/26 11:49:25;;;;;;;8.93;1.40;;;18.90;99.90;;;;;;5054665;28;20123;-61
2022/07/26 11:51:58;;;;;;;6.30;1.20;;;19.00;99.90;;;;;;5054712;28;20035;-62
2022/07/26 11:54:27;;;;;;;5.95;1.33;;;19.10;99.90;;;;;;5069608;28;20555;-62
2022/07/26 11:57:02;;;;;;;6.38;1.55;;;19.50;99.90;;;;;;5053290;28;20080;-62
2022/07/26 11:59:30;;;;;;;6.13;1.20;;;19.50;99.90;;;;;;5054067;28;20037;-61
2022/07/26 12:01:56;;;;;;;7.97;1.73;;;19.20;99.90;;;;;;5054077;28;20063;-63
2022/07/26 12:04:24;;;;;;;6.10;1.08;;;19.30;99.90;;;;;;5053915;28;20123;-62
2022/07/26 12:06:52;;;;;;;7.93;1.60;;;19.60;99.90;;;;;;5054461;28;20044;-61
2022/07/26 12:09:27;;;;;;;6.70;1.40;;;19.30;99.90;;;;;;5054394;28;20045;-61
2022/07/26 12:11:52;;;;;;;7.28;1.40;;;19.50;99.90;;;;;;5053974;28;20045;-61
2022/07/26 12:14:29;;;;;;;6.43;1.30;;;19.20;99.90;;;;;;5052883;28;20396;-62
2022/07/26 12:16:56;;;;;;;7.13;1.33;;;19.30;99.90;;;;;;5052613;28;20150;-61
2022/07/26 12:19:27;;;;;;;8.10;1.98;;;19.30;99.90;;;;;;5053665;28;20033;-61
2022/07/26 12:21:57;;;;;;;4.95;1.30;;;19.10;99.90;;;;;;5033052;28;20049;-61
2022/07/26 12:24:40;;;;;;;7.32;1.35;;;19.20;99.90;;;;;;5034199;28;20127;-62
2022/07/26 12:27:11;;;;;;;8.05;1.55;;;19.30;99.90;;;;;;5034244;28;20049;-61
2022/07/26 12:29:39;;;;;;;8.15;1.40;;;19.40;99.90;;;;;;5034096;28;20041;-62
2022/07/26 12:32:05;;;;;;;10.35;1.60;;;19.60;99.90;;;;;;5034080;28;20037;-58
2022/07/26 12:34:31;;;;;;;8.15;1.67;;;19.10;99.90;;;;;;5033944;28;20127;-61
2022/07/26 12:37:13;;;;;;;6.50;1.27;;;19.00;99.90;;;;;;5039203;28;20456;-62
2022/07/26 12:39:40;;;;;;;8.90;1.35;;;19.20;99.90;;;;;;5049700;28;20040;-61
2022/07/26 12:42:27;;;;;;;12.75;1.40;;;19.20;99.90;;;;;;5033371;28;20063;-61
2022/07/26 12:44:54;;;;;;;6.65;1.20;;;19.40;99.90;;;;;;5044442;28;20069;-59
2022/07/26 12:47:20;;;;;;;8.70;2.03;;;19.30;99.90;;;;;;5053038;28;20044;-60